sensor_id;sensor_type;location;lat;lon;timestamp;P1;durP1;ratioP1;P2;durP2;ratioP2
14088;SDS011;7120;52.890;6.040;2023-04-24T00:00:04;559.43;;;528.57;;
14088;SDS011;7120;52.890;6.040;2023-04-24T00:02:37;467.83;;;442.77;;
14088;SDS011;7120;52.890;6.040;2023-04-24T00:05:05;578.47;;;546.23;;
14088;SDS011;7120;52.890;6.040;2023-04-24T00:07:32;576.90;;;545.23;;
14088;SDS011;7120;52.890;6.040;2023-04-24T00:09:57;626.17;;;590.13;;
14088;SDS011;7120;52.890;6.040;2023-04-24T00:12:23;573.80;;;541.33;;
14088;SDS011;7120;52.890;6.040;2023-04-24T00:14:48;586.67;;;554.43;;
14088;SDS011;7120;52.890;6.040;2023-04-24T00:17:13;604.30;;;571.10;;
14088;SDS011;7120;52.890;6.040;2023-04-24T00:19:39;550.90;;;521.37;;
14088;SDS011;7120;52.890;6.040;2023-04-24T00:22:04;566.90;;;535.60;;
14088;SDS011;7120;52.890;6.040;2023-04-24T00:24:30;582.97;;;550.10;;
14088;SDS011;7120;52.890;6.040;2023-04-24T00:26:55;546.43;;;516.70;;
14088;SDS011;7120;52.890;6.040;2023-04-24T00:29:21;571.07;;;539.53;;
14088;SDS011;7120;52.890;6.040;2023-04-24T00:31:46;593.37;;;560.17;;
14088;SDS011;7120;52.890;6.040;2023-04-24T00:34:12;636.83;;;600.83;;
14088;SDS011;7120;52.890;6.040;2023-04-24T00:36:37;773.03;;;728.27;;
14088;SDS011;7120;52.890;6.040;2023-04-24T00:39:03;608.33;;;573.93;;
14088;SDS011;7120;52.890;6.040;2023-04-24T00:41:28;598.00;;;564.73;;
14088;SDS011;7120;52.890;6.040;2023-04-24T00:43:54;594.47;;;561.43;;
14088;SDS011;7120;52.890;6.040;2023-04-24T00:46:20;617.43;;;583.13;;
14088;SDS011;7120;52.890;6.040;2023-04-24T00:48:46;629.57;;;594.20;;
14088;SDS011;7120;52.890;6.040;2023-04-24T00:51:11;612.67;;;578.73;;
14088;SDS011;7120;52.890;6.040;2023-04-24T00:53:37;662.03;;;625.13;;
14088;SDS011;7120;52.890;6.040;2023-04-24T00:56:03;625.63;;;590.60;;
14088;SDS011;7120;52.890;6.040;2023-04-24T00:58:29;607.30;;;573.03;;
14088;SDS011;7120;52.890;6.040;2023-04-24T01:00:56;605.03;;;572.17;;
14088;SDS011;7120;52.890;6.040;2023-04-24T01:03:23;573.27;;;541.97;;
14088;SDS011;7120;52.890;6.040;2023-04-24T01:05:51;586.10;;;554.13;;
14088;SDS011;7120;52.890;6.040;2023-04-24T01:08:17;622.60;;;587.23;;
14088;SDS011;7120;52.890;6.040;2023-04-24T01:10:43;617.23;;;582.67;;
14088;SDS011;7120;52.890;6.040;2023-04-24T01:13:10;593.63;;;560.63;;
14088;SDS011;7120;52.890;6.040;2023-04-24T01:15:36;580.40;;;548.90;;
14088;SDS011;7120;52.890;6.040;2023-04-24T01:18:02;607.53;;;573.10;;
14088;SDS011;7120;52.890;6.040;2023-04-24T01:20:28;587.43;;;555.13;;
14088;SDS011;7120;52.890;6.040;2023-04-24T01:22:55;610.83;;;576.97;;
14088;SDS011;7120;52.890;6.040;2023-04-24T01:25:21;782.80;;;736.37;;
14088;SDS011;7120;52.890;6.040;2023-04-24T01:27:47;720.27;;;678.00;;
14088;SDS011;7120;52.890;6.040;2023-04-24T01:30:13;659.10;;;620.93;;
14088;SDS011;7120;52.890;6.040;2023-04-24T01:32:38;609.43;;;574.73;;
14088;SDS011;7120;52.890;6.040;2023-04-24T01:35:05;600.53;;;565.60;;
14088;SDS011;7120;52.890;6.040;2023-04-24T01:37:31;644.73;;;608.93;;
14088;SDS011;7120;52.890;6.040;2023-04-24T01:39:58;626.13;;;589.67;;
14088;SDS011;7120;52.890;6.040;2023-04-24T01:42:23;586.80;;;552.83;;
14088;SDS011;7120;52.890;6.040;2023-04-24T01:44:49;615.17;;;580.63;;
14088;SDS011;7120;52.890;6.040;2023-04-24T01:47:16;606.90;;;572.37;;
14088;SDS011;7120;52.890;6.040;2023-04-24T01:49:41;603.03;;;567.70;;
14088;SDS011;7120;52.890;6.040;2023-04-24T01:52:07;565.77;;;534.67;;
14088;SDS011;7120;52.890;6.040;2023-04-24T01:54:32;614.73;;;578.67;;
14088;SDS011;7120;52.890;6.040;2023-04-24T01:56:58;736.27;;;692.30;;
14088;SDS011;7120;52.890;6.040;2023-04-24T01:59:25;612.07;;;576.90;;
14088;SDS011;7120;52.890;6.040;2023-04-24T02:01:53;586.67;;;553.53;;
14088;SDS011;7120;52.890;6.040;2023-04-24T02:04:18;624.83;;;587.90;;
14088;SDS011;7120;52.890;6.040;2023-04-24T02:06:44;657.07;;;619.17;;
14088;SDS011;7120;52.890;6.040;2023-04-24T02:09:10;669.43;;;630.27;;
14088;SDS011;7120;52.890;6.040;2023-04-24T02:11:35;667.67;;;624.67;;
14088;SDS011;7120;52.890;6.040;2023-04-24T02:14:01;614.77;;;579.63;;
14088;SDS011;7120;52.890;6.040;2023-04-24T02:16:27;648.00;;;607.33;;
14088;SDS011;7120;52.890;6.040;2023-04-24T02:18:55;683.30;;;643.57;;
14088;SDS011;7120;52.890;6.040;2023-04-24T02:21:20;702.40;;;657.60;;
14088;SDS011;7120;52.890;6.040;2023-04-24T02:23:45;609.67;;;574.83;;
14088;SDS011;7120;52.890;6.040;2023-04-24T02:26:11;666.47;;;628.17;;
14088;SDS011;7120;52.890;6.040;2023-04-24T02:28:36;562.93;;;530.53;;
14088;SDS011;7120;52.890;6.040;2023-04-24T02:31:02;574.63;;;540.97;;
14088;SDS011;7120;52.890;6.040;2023-04-24T02:33:27;611.87;;;576.50;;
14088;SDS011;7120;52.890;6.040;2023-04-24T02:35:52;577.83;;;544.67;;
14088;SDS011;7120;52.890;6.040;2023-04-24T02:38:18;498.90;;;469.30;;
14088;SDS011;7120;52.890;6.040;2023-04-24T02:40:43;514.80;;;485.20;;
14088;SDS011;7120;52.890;6.040;2023-04-24T02:43:08;675.20;;;635.27;;
14088;SDS011;7120;52.890;6.040;2023-04-24T02:45:34;533.53;;;502.20;;
14088;SDS011;7120;52.890;6.040;2023-04-24T02:47:59;731.30;;;688.77;;
14088;SDS011;7120;52.890;6.040;2023-04-24T02:50:25;666.47;;;626.03;;
14088;SDS011;7120;52.890;6.040;2023-04-24T02:52:50;632.30;;;594.67;;
14088;SDS011;7120;52.890;6.040;2023-04-24T02:55:15;590.23;;;557.07;;
14088;SDS011;7120;52.890;6.040;2023-04-24T02:57:41;488.30;;;459.93;;
14088;SDS011;7120;52.890;6.040;2023-04-24T03:00:06;479.07;;;451.63;;
14088;SDS011;7120;52.890;6.040;2023-04-24T03:02:33;510.70;;;480.90;;
14088;SDS011;7120;52.890;6.040;2023-04-24T03:04:59;548.37;;;516.03;;
14088;SDS011;7120;52.890;6.040;2023-04-24T03:07:24;515.87;;;485.47;;
14088;SDS011;7120;52.890;6.040;2023-04-24T03:09:50;462.13;;;436.90;;
14088;SDS011;7120;52.890;6.040;2023-04-24T03:12:15;501.60;;;471.83;;
14088;SDS011;7120;52.890;6.040;2023-04-24T03:14:42;441.57;;;416.17;;
14088;SDS011;7120;52.890;6.040;2023-04-24T03:17:08;513.17;;;483.50;;
14088;SDS011;7120;52.890;6.040;2023-04-24T03:19:33;493.40;;;464.90;;
14088;SDS011;7120;52.890;6.040;2023-04-24T03:21:59;487.10;;;457.67;;
14088;SDS011;7120;52.890;6.040;2023-04-24T03:24:26;514.00;;;482.83;;
14088;SDS011;7120;52.890;6.040;2023-04-24T03:26:52;506.17;;;476.43;;
14088;SDS011;7120;52.890;6.040;2023-04-24T03:29:18;484.20;;;455.20;;
14088;SDS011;7120;52.890;6.040;2023-04-24T03:31:43;509.43;;;479.47;;
14088;SDS011;7120;52.890;6.040;2023-04-24T03:34:08;484.97;;;455.27;;
14088;SDS011;7120;52.890;6.040;2023-04-24T03:36:34;563.67;;;531.40;;
14088;SDS011;7120;52.890;6.040;2023-04-24T03:39:00;503.77;;;473.57;;
14088;SDS011;7120;52.890;6.040;2023-04-24T03:41:25;532.40;;;500.20;;
14088;SDS011;7120;52.890;6.040;2023-04-24T03:43:51;553.83;;;521.40;;
14088;SDS011;7120;52.890;6.040;2023-04-24T03:46:16;527.47;;;496.07;;
14088;SDS011;7120;52.890;6.040;2023-04-24T03:48:42;533.83;;;501.33;;
14088;SDS011;7120;52.890;6.040;2023-04-24T03:51:07;619.23;;;584.07;;
14088;SDS011;7120;52.890;6.040;2023-04-24T03:53:32;495.40;;;467.83;;
14088;SDS011;7120;52.890;6.040;2023-04-24T03:55:58;678.03;;;641.47;;
14088;SDS011;7120;52.890;6.040;2023-04-24T03:58:23;624.73;;;590.50;;
14088;SDS011;7120;52.890;6.040;2023-04-24T04:00:49;677.77;;;637.93;;
14088;SDS011;7120;52.890;6.040;2023-04-24T04:03:14;603.03;;;568.80;;
14088;SDS011;7120;52.890;6.040;2023-04-24T04:05:40;596.20;;;563.03;;
14088;SDS011;7120;52.890;6.040;2023-04-24T04:08:05;721.43;;;681.40;;
14088;SDS011;7120;52.890;6.040;2023-04-24T04:10:31;824.93;;;774.57;;
14088;SDS011;7120;52.890;6.040;2023-04-24T04:12:56;803.60;;;756.70;;
14088;SDS011;7120;52.890;6.040;2023-04-24T04:15:22;770.47;;;725.70;;
14088;SDS011;7120;52.890;6.040;2023-04-24T04:17:47;504.60;;;477.17;;
14088;SDS011;7120;52.890;6.040;2023-04-24T04:20:12;808.97;;;762.23;;
14088;SDS011;7120;52.890;6.040;2023-04-24T04:22:38;644.33;;;603.87;;
14088;SDS011;7120;52.890;6.040;2023-04-24T04:25:03;864.57;;;808.40;;
14088;SDS011;7120;52.890;6.040;2023-04-24T04:27:29;807.17;;;756.07;;
14088;SDS011;7120;52.890;6.040;2023-04-24T04:29:57;630.30;;;595.20;;
14088;SDS011;7120;52.890;6.040;2023-04-24T04:32:24;610.93;;;576.13;;
14088;SDS011;7120;52.890;6.040;2023-04-24T04:34:49;699.13;;;657.37;;
14088;SDS011;7120;52.890;6.040;2023-04-24T04:37:18;727.90;;;686.57;;
14088;SDS011;7120;52.890;6.040;2023-04-24T04:39:43;782.80;;;732.03;;
14088;SDS011;7120;52.890;6.040;2023-04-24T04:42:09;658.30;;;622.13;;
14088;SDS011;7120;52.890;6.040;2023-04-24T04:44:34;816.60;;;765.70;;
14088;SDS011;7120;52.890;6.040;2023-04-24T04:47:00;695.47;;;655.20;;
14088;SDS011;7120;52.890;6.040;2023-04-24T04:49:28;640.30;;;604.63;;
14088;SDS011;7120;52.890;6.040;2023-04-24T04:51:54;698.80;;;659.20;;
14088;SDS011;7120;52.890;6.040;2023-04-24T04:54:19;740.23;;;694.90;;
14088;SDS011;7120;52.890;6.040;2023-04-24T04:56:45;618.73;;;577.40;;
14088;SDS011;7120;52.890;6.040;2023-04-24T04:59:10;765.83;;;716.27;;
14088;SDS011;7120;52.890;6.040;2023-04-24T05:01:36;639.27;;;602.93;;
14088;SDS011;7120;52.890;6.040;2023-04-24T05:04:01;735.37;;;693.83;;
14088;SDS011;7120;52.890;6.040;2023-04-24T05:06:28;640.07;;;606.83;;
14088;SDS011;7120;52.890;6.040;2023-04-24T05:08:53;667.53;;;629.20;;
14088;SDS011;7120;52.890;6.040;2023-04-24T05:11:22;621.53;;;583.83;;
14088;SDS011;7120;52.890;6.040;2023-04-24T05:13:48;655.27;;;616.80;;
14088;SDS011;7120;52.890;6.040;2023-04-24T05:16:13;558.40;;;528.57;;
14088;SDS011;7120;52.890;6.040;2023-04-24T05:18:38;480.93;;;456.97;;
14088;SDS011;7120;52.890;6.040;2023-04-24T05:21:04;440.93;;;417.80;;
14088;SDS011;7120;52.890;6.040;2023-04-24T05:23:29;443.67;;;421.13;;
14088;SDS011;7120;52.890;6.040;2023-04-24T05:25:54;601.73;;;569.30;;
14088;SDS011;7120;52.890;6.040;2023-04-24T05:28:20;870.90;;;810.80;;
14088;SDS011;7120;52.890;6.040;2023-04-24T05:30:46;438.77;;;416.83;;
14088;SDS011;7120;52.890;6.040;2023-04-24T05:33:11;207.93;;;193.07;;
14088;SDS011;7120;52.890;6.040;2023-04-24T05:35:36;581.67;;;399.87;;
14088;SDS011;7120;52.890;6.040;2023-04-24T05:38:02;105.93;;;98.37;;
14088;SDS011;7120;52.890;6.040;2023-04-24T05:40:28;264.87;;;244.37;;
14088;SDS011;7120;52.890;6.040;2023-04-24T05:42:53;1472.07;;;571.47;;
14088;SDS011;7120;52.890;6.040;2023-04-24T05:45:18;1406.47;;;582.50;;
14088;SDS011;7120;52.890;6.040;2023-04-24T05:47:44;639.97;;;298.77;;
14088;SDS011;7120;52.890;6.040;2023-04-24T05:50:10;1999.90;;;915.43;;
14088;SDS011;7120;52.890;6.040;2023-04-24T05:52:36;1542.43;;;597.70;;
14088;SDS011;7120;52.890;6.040;2023-04-24T05:55:01;1213.23;;;448.07;;
14088;SDS011;7120;52.890;6.040;2023-04-24T05:57:27;84.60;;;79.87;;
14088;SDS011;7120;52.890;6.040;2023-04-24T05:59:52;784.30;;;275.77;;
14088;SDS011;7120;52.890;6.040;2023-04-24T06:02:18;246.83;;;227.53;;
14088;SDS011;7120;52.890;6.040;2023-04-24T06:04:43;132.80;;;124.37;;
14088;SDS011;7120;52.890;6.040;2023-04-24T06:07:10;98.77;;;93.40;;
14088;SDS011;7120;52.890;6.040;2023-04-24T06:09:36;1834.13;;;516.37;;
14088;SDS011;7120;52.890;6.040;2023-04-24T06:12:01;107.90;;;102.57;;
14088;SDS011;7120;52.890;6.040;2023-04-24T06:14:27;317.43;;;189.37;;
14088;SDS011;7120;52.890;6.040;2023-04-24T06:16:53;59.33;;;55.63;;
14088;SDS011;7120;52.890;6.040;2023-04-24T06:19:18;1819.80;;;529.17;;
14088;SDS011;7120;52.890;6.040;2023-04-24T06:21:44;82.33;;;77.50;;
14088;SDS011;7120;52.890;6.040;2023-04-24T06:24:09;760.77;;;328.77;;
14088;SDS011;7120;52.890;6.040;2023-04-24T06:26:35;496.63;;;270.73;;
14088;SDS011;7120;52.890;6.040;2023-04-24T06:29:01;890.03;;;308.10;;
14088;SDS011;7120;52.890;6.040;2023-04-24T06:31:26;59.97;;;56.97;;
14088;SDS011;7120;52.890;6.040;2023-04-24T06:33:52;1152.90;;;380.83;;
14088;SDS011;7120;52.890;6.040;2023-04-24T06:36:17;336.33;;;301.43;;
14088;SDS011;7120;52.890;6.040;2023-04-24T06:38:42;105.20;;;98.83;;
14088;SDS011;7120;52.890;6.040;2023-04-24T06:41:09;420.23;;;171.57;;
14088;SDS011;7120;52.890;6.040;2023-04-24T06:43:35;249.90;;;161.83;;
14088;SDS011;7120;52.890;6.040;2023-04-24T06:46:00;192.07;;;144.00;;
14088;SDS011;7120;52.890;6.040;2023-04-24T06:48:25;455.07;;;165.40;;
14088;SDS011;7120;52.890;6.040;2023-04-24T06:50:51;1782.60;;;481.70;;
14088;SDS011;7120;52.890;6.040;2023-04-24T06:53:17;272.50;;;136.47;;
14088;SDS011;7120;52.890;6.040;2023-04-24T06:55:43;209.00;;;142.50;;
14088;SDS011;7120;52.890;6.040;2023-04-24T06:58:11;227.73;;;208.83;;
14088;SDS011;7120;52.890;6.040;2023-04-24T07:00:36;809.13;;;280.50;;
14088;SDS011;7120;52.890;6.040;2023-04-24T07:03:02;139.83;;;78.07;;
14088;SDS011;7120;52.890;6.040;2023-04-24T07:05:28;98.67;;;91.50;;
14088;SDS011;7120;52.890;6.040;2023-04-24T07:07:54;1967.53;;;553.90;;
14088;SDS011;7120;52.890;6.040;2023-04-24T07:10:19;1973.70;;;440.90;;
14088;SDS011;7120;52.890;6.040;2023-04-24T07:12:45;1280.27;;;999.90;;
14088;SDS011;7120;52.890;6.040;2023-04-24T07:15:11;1368.90;;;999.90;;
14088;SDS011;7120;52.890;6.040;2023-04-24T07:17:37;1410.93;;;999.90;;
14088;SDS011;7120;52.890;6.040;2023-04-24T07:20:03;1238.53;;;999.90;;
14088;SDS011;7120;52.890;6.040;2023-04-24T07:22:30;1440.23;;;999.90;;
14088;SDS011;7120;52.890;6.040;2023-04-24T07:24:55;1577.17;;;999.90;;
14088;SDS011;7120;52.890;6.040;2023-04-24T07:27:21;1087.20;;;985.30;;
14088;SDS011;7120;52.890;6.040;2023-04-24T07:29:46;850.63;;;789.90;;
14088;SDS011;7120;52.890;6.040;2023-04-24T07:32:12;637.77;;;596.87;;
14088;SDS011;7120;52.890;6.040;2023-04-24T07:34:37;918.93;;;840.33;;
14088;SDS011;7120;52.890;6.040;2023-04-24T07:37:02;825.27;;;771.37;;
14088;SDS011;7120;52.890;6.040;2023-04-24T07:39:28;533.73;;;503.37;;
14088;SDS011;7120;52.890;6.040;2023-04-24T07:41:54;627.37;;;589.43;;
14088;SDS011;7120;52.890;6.040;2023-04-24T07:44:19;523.70;;;492.50;;
14088;SDS011;7120;52.890;6.040;2023-04-24T07:46:45;629.73;;;589.37;;
14088;SDS011;7120;52.890;6.040;2023-04-24T07:49:10;663.90;;;624.53;;
14088;SDS011;7120;52.890;6.040;2023-04-24T07:51:35;726.53;;;682.37;;
14088;SDS011;7120;52.890;6.040;2023-04-24T07:54:06;563.17;;;531.03;;
14088;SDS011;7120;52.890;6.040;2023-04-24T07:56:32;742.80;;;695.13;;
14088;SDS011;7120;52.890;6.040;2023-04-24T07:58:58;865.70;;;799.70;;
14088;SDS011;7120;52.890;6.040;2023-04-24T08:01:23;776.70;;;718.47;;
14088;SDS011;7120;52.890;6.040;2023-04-24T08:03:50;660.73;;;617.80;;
14088;SDS011;7120;52.890;6.040;2023-04-24T08:06:16;696.57;;;652.87;;
14088;SDS011;7120;52.890;6.040;2023-04-24T08:08:41;694.93;;;649.30;;
14088;SDS011;7120;52.890;6.040;2023-04-24T08:11:07;582.80;;;549.83;;
14088;SDS011;7120;52.890;6.040;2023-04-24T08:13:32;725.97;;;677.90;;
14088;SDS011;7120;52.890;6.040;2023-04-24T08:15:57;632.43;;;595.67;;
14088;SDS011;7120;52.890;6.040;2023-04-24T08:18:23;726.07;;;677.47;;
14088;SDS011;7120;52.890;6.040;2023-04-24T08:20:48;619.03;;;586.90;;
14088;SDS011;7120;52.890;6.040;2023-04-24T08:23:13;569.67;;;539.80;;
14088;SDS011;7120;52.890;6.040;2023-04-24T08:25:39;688.67;;;651.67;;
14088;SDS011;7120;52.890;6.040;2023-04-24T08:28:05;784.97;;;739.97;;
14088;SDS011;7120;52.890;6.040;2023-04-24T08:30:31;708.53;;;669.90;;
14088;SDS011;7120;52.890;6.040;2023-04-24T08:32:57;733.20;;;690.60;;
14088;SDS011;7120;52.890;6.040;2023-04-24T08:35:23;767.60;;;724.07;;
14088;SDS011;7120;52.890;6.040;2023-04-24T08:37:48;656.97;;;619.93;;
14088;SDS011;7120;52.890;6.040;2023-04-24T08:40:14;651.63;;;616.37;;
14088;SDS011;7120;52.890;6.040;2023-04-24T08:42:41;662.30;;;626.13;;
14088;SDS011;7120;52.890;6.040;2023-04-24T08:45:08;707.67;;;666.93;;
14088;SDS011;7120;52.890;6.040;2023-04-24T08:47:34;624.70;;;589.30;;
14088;SDS011;7120;52.890;6.040;2023-04-24T08:50:00;494.27;;;469.37;;
14088;SDS011;7120;52.890;6.040;2023-04-24T08:52:28;656.57;;;619.00;;
14088;SDS011;7120;52.890;6.040;2023-04-24T08:54:53;690.57;;;649.40;;
14088;SDS011;7120;52.890;6.040;2023-04-24T08:57:19;626.60;;;593.70;;
14088;SDS011;7120;52.890;6.040;2023-04-24T08:59:45;708.47;;;667.77;;
14088;SDS011;7120;52.890;6.040;2023-04-24T09:02:11;382.10;;;362.77;;
14088;SDS011;7120;52.890;6.040;2023-04-24T09:04:38;591.43;;;556.27;;
14088;SDS011;7120;52.890;6.040;2023-04-24T09:07:06;295.40;;;280.00;;
14088;SDS011;7120;52.890;6.040;2023-04-24T09:09:32;261.40;;;244.23;;
14088;SDS011;7120;52.890;6.040;2023-04-24T09:11:59;276.93;;;257.63;;
14088;SDS011;7120;52.890;6.040;2023-04-24T09:14:25;60.27;;;57.30;;
14088;SDS011;7120;52.890;6.040;2023-04-24T09:16:51;32.57;;;21.00;;
14088;SDS011;7120;52.890;6.040;2023-04-24T09:19:16;14.80;;;13.40;;
14088;SDS011;7120;52.890;6.040;2023-04-24T09:21:42;38.80;;;35.13;;
14088;SDS011;7120;52.890;6.040;2023-04-24T09:24:17;176.57;;;148.90;;
14088;SDS011;7120;52.890;6.040;2023-04-24T09:26:47;12.50;;;11.30;;
14088;SDS011;7120;52.890;6.040;2023-04-24T09:29:16;8.27;;;4.40;;
14088;SDS011;7120;52.890;6.040;2023-04-24T09:31:42;15.73;;;14.67;;
14088;SDS011;7120;52.890;6.040;2023-04-24T09:34:09;7.23;;;4.27;;
14088;SDS011;7120;52.890;6.040;2023-04-24T09:36:36;10.87;;;7.17;;
14088;SDS011;7120;52.890;6.040;2023-04-24T09:39:07;67.40;;;64.00;;
14088;SDS011;7120;52.890;6.040;2023-04-24T09:41:48;320.33;;;302.57;;
14088;SDS011;7120;52.890;6.040;2023-04-24T09:44:16;565.07;;;530.73;;
14088;SDS011;7120;52.890;6.040;2023-04-24T09:46:44;621.60;;;584.20;;
14088;SDS011;7120;52.890;6.040;2023-04-24T09:49:15;196.93;;;187.33;;
14088;SDS011;7120;52.890;6.040;2023-04-24T09:51:42;63.07;;;59.80;;
14088;SDS011;7120;52.890;6.040;2023-04-24T09:54:14;188.30;;;176.17;;
14088;SDS011;7120;52.890;6.040;2023-04-24T09:56:44;75.57;;;71.77;;
14088;SDS011;7120;52.890;6.040;2023-04-24T09:59:12;59.60;;;56.73;;
14088;SDS011;7120;52.890;6.040;2023-04-24T10:01:40;143.97;;;131.80;;
14088;SDS011;7120;52.890;6.040;2023-04-24T10:04:19;51.50;;;48.50;;
14088;SDS011;7120;52.890;6.040;2023-04-24T10:06:45;78.97;;;70.73;;
14088;SDS011;7120;52.890;6.040;2023-04-24T10:09:11;146.70;;;124.33;;
14088;SDS011;7120;52.890;6.040;2023-04-24T10:11:41;12.27;;;10.83;;
14088;SDS011;7120;52.890;6.040;2023-04-24T10:14:09;11.40;;;10.40;;
14088;SDS011;7120;52.890;6.040;2023-04-24T10:16:37;9.20;;;3.80;;
14088;SDS011;7120;52.890;6.040;2023-04-24T10:19:04;12.40;;;10.77;;
14088;SDS011;7120;52.890;6.040;2023-04-24T10:21:30;173.03;;;152.47;;
14088;SDS011;7120;52.890;6.040;2023-04-24T10:23:56;10.90;;;3.30;;
14088;SDS011;7120;52.890;6.040;2023-04-24T10:26:22;4.57;;;2.60;;
14088;SDS011;7120;52.890;6.040;2023-04-24T10:28:48;8.33;;;3.00;;
14088;SDS011;7120;52.890;6.040;2023-04-24T10:31:14;51.83;;;47.47;;
14088;SDS011;7120;52.890;6.040;2023-04-24T10:33:42;7.23;;;3.83;;
14088;SDS011;7120;52.890;6.040;2023-04-24T10:36:11;71.10;;;64.33;;
14088;SDS011;7120;52.890;6.040;2023-04-24T10:38:39;25.30;;;23.70;;
14088;SDS011;7120;52.890;6.040;2023-04-24T10:41:08;9.53;;;5.03;;
14088;SDS011;7120;52.890;6.040;2023-04-24T10:43:39;10.50;;;5.47;;
14088;SDS011;7120;52.890;6.040;2023-04-24T10:46:05;12.57;;;9.17;;
14088;SDS011;7120;52.890;6.040;2023-04-24T10:48:31;15.40;;;8.73;;
14088;SDS011;7120;52.890;6.040;2023-04-24T10:50:57;12.87;;;10.43;;
14088;SDS011;7120;52.890;6.040;2023-04-24T10:53:24;12.70;;;3.13;;
14088;SDS011;7120;52.890;6.040;2023-04-24T10:56:08;7.63;;;2.40;;
14088;SDS011;7120;52.890;6.040;2023-04-24T11:01:09;6.50;;;2.50;;
14088;SDS011;7120;52.890;6.040;2023-04-24T11:04:22;3.60;;;1.77;;
14088;SDS011;7120;52.890;6.040;2023-04-24T11:06:53;6.33;;;2.00;;
14088;SDS011;7120;52.890;6.040;2023-04-24T11:09:18;5.37;;;2.10;;
14088;SDS011;7120;52.890;6.040;2023-04-24T11:11:46;7.30;;;3.43;;
14088;SDS011;7120;52.890;6.040;2023-04-24T11:14:14;4.77;;;1.80;;
14088;SDS011;7120;52.890;6.040;2023-04-24T11:16:52;5.03;;;2.30;;
14088;SDS011;7120;52.890;6.040;2023-04-24T11:19:23;5.70;;;2.37;;
14088;SDS011;7120;52.890;6.040;2023-04-24T11:37:36;3.47;;;1.40;;
14088;SDS011;7120;52.890;6.040;2023-04-24T11:40:07;4.83;;;1.90;;
14088;SDS011;7120;52.890;6.040;2023-04-24T11:42:34;2.63;;;1.33;;
14088;SDS011;7120;52.890;6.040;2023-04-24T11:45:13;4.00;;;1.20;;
14088;SDS011;7120;52.890;6.040;2023-04-24T11:47:39;3.93;;;1.30;;
14088;SDS011;7120;52.890;6.040;2023-04-24T11:50:12;4.20;;;1.47;;
14088;SDS011;7120;52.890;6.040;2023-04-24T11:52:40;5.03;;;1.60;;
14088;SDS011;7120;52.890;6.040;2023-04-24T11:55:07;2.77;;;1.50;;
14088;SDS011;7120;52.890;6.040;2023-04-24T11:57:53;6.03;;;1.23;;
14088;SDS011;7120;52.890;6.040;2023-04-24T12:00:25;6.27;;;1.07;;
14088;SDS011;7120;52.890;6.040;2023-04-24T12:03:03;2.53;;;1.33;;
14088;SDS011;7120;52.890;6.040;2023-04-24T12:05:33;6.83;;;1.10;;
14088;SDS011;7120;52.890;6.040;2023-04-24T12:07:59;6.00;;;1.37;;
14088;SDS011;7120;52.890;6.040;2023-04-24T12:10:25;3.37;;;1.30;;
14088;SDS011;7120;52.890;6.040;2023-04-24T12:12:52;2.17;;;1.00;;
14088;SDS011;7120;52.890;6.040;2023-04-24T12:15:18;2.77;;;1.10;;
14088;SDS011;7120;52.890;6.040;2023-04-24T12:17:45;2.13;;;0.90;;
14088;SDS011;7120;52.890;6.040;2023-04-24T12:20:11;5.00;;;1.30;;
14088;SDS011;7120;52.890;6.040;2023-04-24T12:22:47;7.43;;;1.43;;
14088;SDS011;7120;52.890;6.040;2023-04-24T12:25:19;3.53;;;2.20;;
14088;SDS011;7120;52.890;6.040;2023-04-24T12:27:46;5.23;;;1.37;;
14088;SDS011;7120;52.890;6.040;2023-04-24T12:30:17;5.50;;;1.27;;
14088;SDS011;7120;52.890;6.040;2023-04-24T12:32:45;6.27;;;2.03;;
14088;SDS011;7120;52.890;6.040;2023-04-24T12:35:12;4.13;;;1.70;;
14088;SDS011;7120;52.890;6.040;2023-04-24T12:37:38;6.17;;;2.37;;
14088;SDS011;7120;52.890;6.040;2023-04-24T12:40:08;2.03;;;0.93;;
14088;SDS011;7120;52.890;6.040;2023-04-24T12:42:35;3.70;;;1.33;;
14088;SDS011;7120;52.890;6.040;2023-04-24T12:45:07;3.53;;;1.37;;
14088;SDS011;7120;52.890;6.040;2023-04-24T12:47:33;4.33;;;1.00;;
14088;SDS011;7120;52.890;6.040;2023-04-24T12:50:00;2.30;;;1.27;;
14088;SDS011;7120;52.890;6.040;2023-04-24T12:52:26;1.70;;;0.97;;
14088;SDS011;7120;52.890;6.040;2023-04-24T12:54:54;3.83;;;1.93;;
14088;SDS011;7120;52.890;6.040;2023-04-24T12:57:25;3.67;;;1.00;;
14088;SDS011;7120;52.890;6.040;2023-04-24T12:59:55;7.33;;;1.67;;
14088;SDS011;7120;52.890;6.040;2023-04-24T13:02:21;7.57;;;1.33;;
14088;SDS011;7120;52.890;6.040;2023-04-24T13:04:48;2.60;;;1.30;;
14088;SDS011;7120;52.890;6.040;2023-04-24T13:07:14;2.90;;;1.20;;
14088;SDS011;7120;52.890;6.040;2023-04-24T13:09:40;3.47;;;1.50;;
14088;SDS011;7120;52.890;6.040;2023-04-24T13:12:06;5.40;;;1.80;;
14088;SDS011;7120;52.890;6.040;2023-04-24T13:14:32;6.80;;;1.43;;
14088;SDS011;7120;52.890;6.040;2023-04-24T13:16:58;6.57;;;1.63;;
14088;SDS011;7120;52.890;6.040;2023-04-24T13:19:26;5.03;;;1.83;;
14088;SDS011;7120;52.890;6.040;2023-04-24T13:21:53;6.70;;;1.80;;
14088;SDS011;7120;52.890;6.040;2023-04-24T13:24:20;10.17;;;1.97;;
14088;SDS011;7120;52.890;6.040;2023-04-24T13:26:49;5.20;;;2.30;;
14088;SDS011;7120;52.890;6.040;2023-04-24T13:29:15;5.67;;;2.00;;
14088;SDS011;7120;52.890;6.040;2023-04-24T13:31:40;6.17;;;1.90;;
14088;SDS011;7120;52.890;6.040;2023-04-24T13:34:05;7.47;;;3.30;;
14088;SDS011;7120;52.890;6.040;2023-04-24T13:36:31;7.93;;;3.67;;
14088;SDS011;7120;52.890;6.040;2023-04-24T13:38:56;10.13;;;1.90;;
14088;SDS011;7120;52.890;6.040;2023-04-24T13:41:22;5.67;;;1.90;;
14088;SDS011;7120;52.890;6.040;2023-04-24T13:43:47;9.80;;;2.43;;
14088;SDS011;7120;52.890;6.040;2023-04-24T13:46:12;8.07;;;2.40;;
14088;SDS011;7120;52.890;6.040;2023-04-24T13:48:38;12.20;;;2.40;;
14088;SDS011;7120;52.890;6.040;2023-04-24T13:51:03;7.20;;;2.70;;
14088;SDS011;7120;52.890;6.040;2023-04-24T13:53:29;5.40;;;2.00;;
14088;SDS011;7120;52.890;6.040;2023-04-24T13:55:54;7.53;;;2.30;;
14088;SDS011;7120;52.890;6.040;2023-04-24T13:58:20;7.60;;;2.13;;
14088;SDS011;7120;52.890;6.040;2023-04-24T14:00:45;8.50;;;2.50;;
14088;SDS011;7120;52.890;6.040;2023-04-24T14:03:11;10.43;;;2.93;;
14088;SDS011;7120;52.890;6.040;2023-04-24T14:05:36;9.80;;;2.57;;
14088;SDS011;7120;52.890;6.040;2023-04-24T14:08:02;9.77;;;2.43;;
14088;SDS011;7120;52.890;6.040;2023-04-24T14:10:27;9.03;;;2.80;;
14088;SDS011;7120;52.890;6.040;2023-04-24T14:12:53;7.90;;;2.30;;
14088;SDS011;7120;52.890;6.040;2023-04-24T14:15:18;8.00;;;3.07;;
14088;SDS011;7120;52.890;6.040;2023-04-24T14:17:44;7.67;;;2.57;;
14088;SDS011;7120;52.890;6.040;2023-04-24T14:20:10;8.20;;;2.20;;
14088;SDS011;7120;52.890;6.040;2023-04-24T14:22:37;7.50;;;2.00;;
14088;SDS011;7120;52.890;6.040;2023-04-24T14:25:03;7.57;;;2.10;;
14088;SDS011;7120;52.890;6.040;2023-04-24T14:27:30;8.13;;;2.30;;
14088;SDS011;7120;52.890;6.040;2023-04-24T14:29:56;12.13;;;2.80;;
14088;SDS011;7120;52.890;6.040;2023-04-24T14:32:22;7.27;;;2.60;;
14088;SDS011;7120;52.890;6.040;2023-04-24T14:34:47;10.53;;;2.70;;
14088;SDS011;7120;52.890;6.040;2023-04-24T14:37:13;12.20;;;2.70;;